createdAt,value
2019-04-14T00:01:15.137Z,30.57
2019-04-14T00:03:56.535Z,30.65
2019-04-14T00:06:24.401Z,35.17
2019-04-14T00:08:52.243Z,30.08
2019-04-14T00:11:19.283Z,28.50
2019-04-14T00:13:46.319Z,30.80
2019-04-14T00:16:14.144Z,30.12
2019-04-14T00:18:41.224Z,32.80
2019-04-14T00:21:10.783Z,29.35
2019-04-14T00:23:39.030Z,31.70
2019-04-14T00:26:27.173Z,34.00
2019-04-14T00:28:55.587Z,32.20
2019-04-14T00:31:23.898Z,33.23
2019-04-14T00:33:52.110Z,32.67
2019-04-14T00:36:37.567Z,35.43
2019-04-14T00:39:16.521Z,36.53
2019-04-14T00:41:54.055Z,32.55
2019-04-14T00:44:36.494Z,32.63
2019-04-14T00:47:09.357Z,33.00
2019-04-14T00:49:37.540Z,33.15
2019-04-14T00:52:05.797Z,29.75
2019-04-14T00:54:32.884Z,35.17
2019-04-14T00:57:00.893Z,32.58
2019-04-14T00:59:28.959Z,34.67
2019-04-14T01:01:56.937Z,34.03
2019-04-14T01:04:25.132Z,33.83
2019-04-14T01:06:53.284Z,34.08
2019-04-14T01:09:21.562Z,36.53
2019-04-14T01:11:48.858Z,36.85
2019-04-14T01:14:16.953Z,35.78
2019-04-14T01:16:45.193Z,33.28
2019-04-14T01:19:13.366Z,34.33
2019-04-14T01:21:41.308Z,36.45
2019-04-14T01:24:09.571Z,36.20
2019-04-14T01:26:37.805Z,34.23
2019-04-14T01:29:05.845Z,36.45
2019-04-14T01:31:33.836Z,39.10
2019-04-14T01:34:01.963Z,39.42
2019-04-14T01:36:29.831Z,37.03
2019-04-14T01:38:58.059Z,38.42
2019-04-14T01:41:26.077Z,37.20
2019-04-14T01:43:53.918Z,35.98
2019-04-14T01:46:26.149Z,35.58
2019-04-14T01:48:50.447Z,33.78
2019-04-14T01:51:26.969Z,37.13
2019-04-14T01:54:15.367Z,38.78
2019-04-14T01:56:54.467Z,40.17
2019-04-14T01:59:21.969Z,38.95
2019-04-14T02:01:49.915Z,39.38
2019-04-14T02:04:18.128Z,37.25
2019-04-14T02:06:46.230Z,38.70
2019-04-14T02:09:14.069Z,41.15
2019-04-14T02:11:42.377Z,38.10
2019-04-14T02:14:10.417Z,36.90
2019-04-14T02:17:00.738Z,43.45
2019-04-14T02:19:26.338Z,40.38
2019-04-14T02:21:54.120Z,40.40
2019-04-14T02:24:22.097Z,42.40
2019-04-14T02:26:50.271Z,40.83
2019-04-14T02:29:17.415Z,39.00
2019-04-14T02:32:13.421Z,38.28
2019-04-14T02:34:41.765Z,44.27
2019-04-14T02:37:10.800Z,41.60
2019-04-14T02:39:48.279Z,37.17
2019-04-14T02:49:41.174Z,41.35
2019-04-14T02:54:36.633Z,41.53
2019-04-14T02:57:01.288Z,39.78
2019-04-14T02:59:29.066Z,39.80
2019-04-14T03:02:20.082Z,39.83
2019-04-14T03:04:25.975Z,44.60
2019-04-14T03:06:55.026Z,45.08
2019-04-14T03:09:30.179Z,42.62
2019-04-14T03:11:51.989Z,41.02
2019-04-14T03:14:23.316Z,42.58
2019-04-14T03:17:21.902Z,43.52
2019-04-14T03:20:07.031Z,41.55
2019-04-14T03:22:37.097Z,43.78
2019-04-14T03:25:11.479Z,45.25
2019-04-14T03:33:38.204Z,41.63
2019-04-14T03:38:13.217Z,48.40
2019-04-14T03:40:42.293Z,48.15
2019-04-14T03:43:13.267Z,46.73
2019-04-14T03:45:51.992Z,50.80
2019-04-14T03:48:34.380Z,44.53
2019-04-14T03:50:29.136Z,44.25
2019-04-14T03:53:05.870Z,49.40
2019-04-14T03:55:20.305Z,43.52
2019-04-14T03:57:34.542Z,44.67
2019-04-14T04:00:03.173Z,49.90
2019-04-14T04:02:31.462Z,46.20
2019-04-14T04:04:59.796Z,43.95
2019-04-14T04:07:27.803Z,45.58
2019-04-14T04:10:15.716Z,41.23
2019-04-14T04:12:42.747Z,43.80
2019-04-14T04:15:12.583Z,46.37
2019-04-14T04:17:49.346Z,42.60
2019-04-14T04:20:32.857Z,50.40
2019-04-14T04:23:24.847Z,43.90
2019-04-14T04:26:01.830Z,46.80
2019-04-14T04:28:54.029Z,42.83
2019-04-14T04:31:39.587Z,49.13
2019-04-14T04:34:16.787Z,46.35
2019-04-14T04:37:11.152Z,40.00
2019-04-14T04:39:43.207Z,50.40
2019-04-14T04:42:13.235Z,44.20
2019-04-14T04:44:42.246Z,49.93
2019-04-14T04:47:09.928Z,47.48
2019-04-14T04:49:38.224Z,50.17
2019-04-14T04:52:06.264Z,47.33
2019-04-14T04:54:34.252Z,44.10
2019-04-14T04:57:02.386Z,47.53
2019-04-14T04:59:29.996Z,47.00
2019-04-14T05:01:58.053Z,43.73
2019-04-14T05:04:26.512Z,46.23
2019-04-14T05:06:57.075Z,46.28
2019-04-14T05:09:53.459Z,47.98
2019-04-14T05:12:50.163Z,51.08
2019-04-14T05:15:40.411Z,50.48
2019-04-14T05:18:15.638Z,48.13
2019-04-14T05:20:42.647Z,51.63
2019-04-14T05:23:10.200Z,44.35
2019-04-14T05:25:38.590Z,44.50
2019-04-14T05:28:06.857Z,47.38
2019-04-14T05:30:34.991Z,44.85
2019-04-14T05:33:02.999Z,41.65
2019-04-14T05:35:31.274Z,43.78
2019-04-14T05:37:59.610Z,48.00
2019-04-14T05:40:27.809Z,46.42
2019-04-14T05:42:55.893Z,45.92
2019-04-14T05:45:24.086Z,42.93
2019-04-14T05:47:52.287Z,47.50
2019-04-14T05:50:20.289Z,50.58
2019-04-14T05:52:47.763Z,50.58
2019-04-14T05:55:15.600Z,44.55
2019-04-14T05:57:43.778Z,47.90
2019-04-14T06:00:14.572Z,52.03
2019-04-14T06:02:41.999Z,42.33
2019-04-14T06:05:11.280Z,45.98
2019-04-14T06:07:38.027Z,47.75
2019-04-14T06:10:05.624Z,46.90
2019-04-14T06:12:32.991Z,43.42
2019-04-14T06:14:59.939Z,46.30
2019-04-14T06:17:27.295Z,43.23
2019-04-14T06:19:54.228Z,51.50
2019-04-14T06:22:21.160Z,46.68
2019-04-14T06:24:48.091Z,45.00
2019-04-14T06:27:15.037Z,48.08
2019-04-14T06:29:41.975Z,45.98
2019-04-14T06:32:46.471Z,48.17
2019-04-14T06:35:33.062Z,48.25
2019-04-14T06:38:05.755Z,48.48
2019-04-14T06:40:35.955Z,46.73
2019-04-14T06:43:02.993Z,41.37
2019-04-14T06:45:29.927Z,44.70
2019-04-14T06:47:56.863Z,45.25
2019-04-14T06:50:23.855Z,44.40
2019-04-14T06:52:50.807Z,42.70
2019-04-14T06:55:17.779Z,43.52
2019-04-14T06:57:44.717Z,45.65
2019-04-14T07:00:11.972Z,45.60
2019-04-14T07:02:38.931Z,43.58
2019-04-14T07:05:06.144Z,45.03
2019-04-14T07:07:33.120Z,40.55
2019-04-14T07:10:00.069Z,43.35
2019-04-14T07:12:27.026Z,47.23
2019-04-14T07:14:53.980Z,45.40
2019-04-14T07:17:20.936Z,43.52
2019-04-14T07:19:48.016Z,44.55
2019-04-14T07:22:14.951Z,40.78
2019-04-14T07:24:41.923Z,47.08
2019-04-14T07:27:08.885Z,49.38
2019-04-14T07:29:42.825Z,48.02
2019-04-14T07:32:24.623Z,45.78
2019-04-14T07:35:09.590Z,43.70
2019-04-14T07:37:55.808Z,49.45
2019-04-14T07:40:29.607Z,51.42
2019-04-14T07:43:19.080Z,48.38
2019-04-14T07:45:50.744Z,47.17
2019-04-14T07:48:22.915Z,43.63
2019-04-14T07:51:04.390Z,41.50
2019-04-14T07:53:45.069Z,37.58
2019-04-14T07:56:31.692Z,39.90
2019-04-14T07:59:18.334Z,37.63
2019-04-14T08:02:17.000Z,40.20
2019-04-14T08:05:03.640Z,38.63
2019-04-14T08:07:30.604Z,38.25
2019-04-14T08:09:57.868Z,39.00
2019-04-14T08:12:24.872Z,41.42
2019-04-14T08:14:51.824Z,39.67
2019-04-14T08:17:18.768Z,37.33
2019-04-14T08:19:45.721Z,38.85
2019-04-14T08:22:13.208Z,40.28
2019-04-14T08:24:40.255Z,36.53
2019-04-14T08:27:07.199Z,38.00
2019-04-14T08:29:34.174Z,37.93
2019-04-14T08:32:01.457Z,36.68
2019-04-14T08:34:28.408Z,37.80
2019-04-14T08:36:55.352Z,38.30
2019-04-14T08:39:22.308Z,38.10
2019-04-14T08:42:11.831Z,38.92
2019-04-14T08:44:46.588Z,36.00
2019-04-14T08:47:27.223Z,35.50
2019-04-14T08:50:03.695Z,35.03
2019-04-14T08:52:46.394Z,34.17
2019-04-14T08:55:26.448Z,33.13
2019-04-14T08:58:13.715Z,38.43
2019-04-14T09:01:08.163Z,36.85
2019-04-14T09:03:46.557Z,35.03
2019-04-14T09:06:22.019Z,35.00
2019-04-14T09:08:56.227Z,32.10
2019-04-14T09:11:32.765Z,33.87
2019-04-14T09:15:07.036Z,34.03
2019-04-14T09:17:35.980Z,31.67
2019-04-14T09:20:05.723Z,32.00
2019-04-14T09:22:34.741Z,31.70
2019-04-14T09:25:04.549Z,31.50
2019-04-14T09:27:33.483Z,32.70
2019-04-14T09:30:03.508Z,33.63
2019-04-14T09:32:32.421Z,32.63
2019-04-14T09:35:01.788Z,29.90
2019-04-14T09:37:30.929Z,32.47
2019-04-14T09:40:00.247Z,32.10
2019-04-14T09:42:29.341Z,31.10
2019-04-14T09:44:58.248Z,31.50
2019-04-14T09:47:27.120Z,31.43
2019-04-14T09:49:56.036Z,29.57
2019-04-14T09:52:24.911Z,32.07
2019-04-14T09:54:53.778Z,31.93
2019-04-14T09:57:22.839Z,31.90
2019-04-14T09:59:51.749Z,35.07
2019-04-14T10:02:20.735Z,30.97
2019-04-14T10:04:49.793Z,30.20
2019-04-14T10:07:18.664Z,29.93
2019-04-14T10:09:47.641Z,29.90
2019-04-14T10:12:16.632Z,28.10
2019-04-14T10:14:45.505Z,29.60
2019-04-14T10:17:14.404Z,29.57
2019-04-14T10:19:43.292Z,29.27
2019-04-14T10:22:12.158Z,27.93
2019-04-14T10:24:41.020Z,27.77
2019-04-14T10:27:09.895Z,26.77
2019-04-14T10:29:38.747Z,29.47
2019-04-14T10:32:08.016Z,28.20
2019-04-14T10:34:36.884Z,26.63
2019-04-14T10:37:05.864Z,25.33
2019-04-14T10:39:34.812Z,28.87
2019-04-14T10:42:03.803Z,27.07
2019-04-14T10:44:32.640Z,29.27
2019-04-14T10:47:01.527Z,24.10
2019-04-14T10:49:30.367Z,26.40
2019-04-14T10:51:59.220Z,24.77
2019-04-14T10:54:28.186Z,25.60
2019-04-14T10:56:57.072Z,26.20
2019-04-14T10:59:25.947Z,25.87
2019-04-14T11:01:54.916Z,28.23
2019-04-14T11:04:24.127Z,24.23
2019-04-14T11:07:18.808Z,25.37
2019-04-14T11:09:48.024Z,27.43
2019-04-14T11:12:16.875Z,24.50
2019-04-14T11:14:45.808Z,26.43
2019-04-14T11:17:14.690Z,23.40
2019-04-14T11:19:43.662Z,26.20
2019-04-14T11:22:12.624Z,22.50
2019-04-14T11:24:41.556Z,23.33
2019-04-14T11:27:10.416Z,22.50
2019-04-14T11:29:39.307Z,25.17
2019-04-14T11:32:34.019Z,22.80
2019-04-14T11:35:16.561Z,23.17
2019-04-14T11:38:04.827Z,23.03
2019-04-14T11:40:39.191Z,23.50
2019-04-14T11:43:08.156Z,22.70
2019-04-14T11:45:37.434Z,22.10
2019-04-14T11:48:06.376Z,22.30
2019-04-14T11:50:35.236Z,24.73
2019-04-14T11:53:04.127Z,21.23
2019-04-14T11:55:32.980Z,22.63
2019-04-14T11:58:01.942Z,21.43
2019-04-14T12:01:02.416Z,24.10
2019-04-14T12:03:56.640Z,21.83
2019-04-14T12:06:39.337Z,22.00
2019-04-14T12:09:17.140Z,20.77
2019-04-14T12:11:46.015Z,21.57
2019-04-14T12:14:14.959Z,19.73
2019-04-14T12:16:43.835Z,21.30
2019-04-14T12:19:12.711Z,21.03
2019-04-14T12:21:41.575Z,22.37
2019-04-14T12:24:10.481Z,21.13
2019-04-14T12:26:39.389Z,19.70
2019-04-14T12:29:09.604Z,20.07
2019-04-14T12:31:39.702Z,21.40
2019-04-14T12:34:08.655Z,21.67
2019-04-14T12:36:38.137Z,20.33
2019-04-14T12:39:15.429Z,22.57
2019-04-14T12:41:49.311Z,20.30
2019-04-14T12:44:35.395Z,20.67
2019-04-14T12:47:11.451Z,20.67
2019-04-14T12:49:42.605Z,18.97
2019-04-14T12:52:21.362Z,19.20
2019-04-14T12:54:50.047Z,21.43
2019-04-14T12:57:28.999Z,18.87
2019-04-14T12:59:58.094Z,17.87
2019-04-14T13:02:30.080Z,21.03
2019-04-14T13:04:58.936Z,18.93
2019-04-14T13:07:27.791Z,19.87
2019-04-14T13:09:56.742Z,17.80
2019-04-14T13:12:25.581Z,18.40
2019-04-14T13:14:54.451Z,18.40
2019-04-14T13:17:23.695Z,16.30
2019-04-14T13:19:52.798Z,19.27
2019-04-14T13:22:33.158Z,16.90
2019-04-14T13:24:52.604Z,17.00
2019-04-14T13:27:23.262Z,18.23
2019-04-14T13:29:52.327Z,16.97
2019-04-14T13:32:21.203Z,17.17
2019-04-14T13:34:50.057Z,17.80
2019-04-14T13:37:19.120Z,19.10
2019-04-14T13:39:47.968Z,16.07
2019-04-14T13:42:16.934Z,16.83
2019-04-14T13:44:45.800Z,15.87
2019-04-14T13:47:14.661Z,16.73
2019-04-14T13:49:43.511Z,16.73
2019-04-14T13:52:12.359Z,17.70
2019-04-14T13:54:41.244Z,16.70
2019-04-14T13:57:10.178Z,17.33
2019-04-14T13:59:39.029Z,15.47
2019-04-14T14:02:07.883Z,17.93
2019-04-14T14:04:36.753Z,16.67
2019-04-14T14:07:06.188Z,16.30
2019-04-14T14:09:35.083Z,16.67
2019-04-14T14:12:19.654Z,17.83
2019-04-14T14:15:14.250Z,16.03
2019-04-14T14:18:01.236Z,15.77
2019-04-14T14:20:43.667Z,14.77
2019-04-14T14:23:27.602Z,16.20
2019-04-14T14:25:59.731Z,16.03
2019-04-14T14:28:28.579Z,17.07
2019-04-14T14:30:57.550Z,17.20
2019-04-14T14:33:26.424Z,16.50
2019-04-14T14:35:55.284Z,16.87
2019-04-14T14:38:24.197Z,14.80
2019-04-14T14:40:54.206Z,17.53
2019-04-14T14:43:23.094Z,15.57
2019-04-14T14:45:59.525Z,16.77
2019-04-14T14:48:33.203Z,15.90
2019-04-14T14:51:16.826Z,15.90
2019-04-14T14:53:45.877Z,16.83
2019-04-14T14:56:14.868Z,16.63
2019-04-14T14:58:45.362Z,15.90
2019-04-14T15:01:14.589Z,16.23
2019-04-14T15:03:43.682Z,15.60
2019-04-14T15:06:12.532Z,17.03
2019-04-14T15:08:41.483Z,15.17
2019-04-14T15:11:10.405Z,15.77
2019-04-14T15:13:39.404Z,17.93
2019-04-14T15:16:08.767Z,16.53
2019-04-14T15:18:37.616Z,16.57
2019-04-14T15:21:06.677Z,16.33
2019-04-14T15:23:35.529Z,14.87
2019-04-14T15:26:04.592Z,15.87
2019-04-14T15:28:33.439Z,17.10
2019-04-14T15:31:02.500Z,16.47
2019-04-14T15:33:31.576Z,14.97
2019-04-14T15:36:00.424Z,16.57
2019-04-14T15:38:29.519Z,15.30
2019-04-14T15:40:58.390Z,15.20
2019-04-14T15:43:27.281Z,17.07
2019-04-14T15:45:59.424Z,14.97
2019-04-14T15:48:29.016Z,15.47
2019-04-14T15:50:58.372Z,15.53
2019-04-14T15:53:37.214Z,15.63
2019-04-14T15:55:59.071Z,19.23
2019-04-14T15:58:37.402Z,16.37
2019-04-14T16:01:26.989Z,16.40
2019-04-14T16:04:01.389Z,15.53
2019-04-14T16:06:53.149Z,16.20
2019-04-14T16:09:51.537Z,16.90
2019-04-14T16:12:31.840Z,15.97
2019-04-14T16:15:14.508Z,15.60
2019-04-14T16:18:02.220Z,15.23
2019-04-14T16:20:33.957Z,16.77
2019-04-14T16:23:03.689Z,15.47
2019-04-14T16:25:51.746Z,16.23
2019-04-14T16:28:42.182Z,16.33
2019-04-14T16:31:33.591Z,16.50
2019-04-14T16:34:11.126Z,16.43
2019-04-14T16:36:41.119Z,17.33
2019-04-14T16:39:10.984Z,20.20
2019-04-14T16:41:40.276Z,17.17
2019-04-14T16:44:09.642Z,17.33
2019-04-14T16:46:38.716Z,18.97
2019-04-14T16:49:08.286Z,17.63
2019-04-14T16:51:43.592Z,16.87
2019-04-14T16:54:26.968Z,16.40
2019-04-14T16:57:28.913Z,17.30
2019-04-14T16:59:57.203Z,16.53
2019-04-14T17:02:26.573Z,18.03
2019-04-14T17:04:55.850Z,16.73
2019-04-14T17:07:28.412Z,17.27
2019-04-14T17:10:00.267Z,17.60
2019-04-14T17:12:31.329Z,17.73
2019-04-14T17:15:23.617Z,17.10
2019-04-14T17:18:14.916Z,16.60
2019-04-14T17:20:57.534Z,19.20
2019-04-14T17:23:46.838Z,17.23
2019-04-14T17:26:21.299Z,17.13
2019-04-14T17:29:10.590Z,17.47
2019-04-14T17:31:50.124Z,18.30
2019-04-14T17:34:37.709Z,18.30
2019-04-14T17:37:17.207Z,17.70
2019-04-14T17:39:53.771Z,17.70
2019-04-14T17:42:27.081Z,18.17
2019-04-14T17:45:01.402Z,19.27
2019-04-14T17:47:41.431Z,19.50
2019-04-14T17:50:41.026Z,16.70
2019-04-14T17:53:22.540Z,19.50
2019-04-14T17:56:04.685Z,18.30
2019-04-14T17:58:42.240Z,18.30
2019-04-14T18:01:46.239Z,16.70
2019-04-14T18:04:24.354Z,18.00
2019-04-14T18:06:55.924Z,19.70
2019-04-14T18:10:00.290Z,16.63
2019-04-14T18:12:45.154Z,16.77
2019-04-14T18:15:34.646Z,17.67
2019-04-14T18:18:30.158Z,17.27
2019-04-14T18:21:02.366Z,16.03
2019-04-14T18:23:35.399Z,16.40
2019-04-14T18:26:08.700Z,16.67
2019-04-14T18:28:48.019Z,17.47
2019-04-14T18:31:26.633Z,17.17
2019-04-14T18:34:17.328Z,18.00
2019-04-14T18:36:56.598Z,19.50
2019-04-14T18:39:50.134Z,18.00
2019-04-14T18:42:46.962Z,16.87
2019-04-14T18:45:43.798Z,17.90
2019-04-14T18:48:20.786Z,18.93
2019-04-14T18:51:07.285Z,16.93
2019-04-14T18:54:04.223Z,18.57
2019-04-14T18:56:40.902Z,17.83
2019-04-14T18:59:27.260Z,18.57
2019-04-14T19:01:55.669Z,22.10
2019-04-14T19:04:23.940Z,17.77
2019-04-14T19:06:51.571Z,17.53
2019-04-14T19:09:22.171Z,20.47
2019-04-14T19:12:15.774Z,16.30
2019-04-14T19:14:44.291Z,17.30
2019-04-14T19:17:37.806Z,18.53
2019-04-14T19:20:06.340Z,16.17
2019-04-14T19:22:34.614Z,16.43
2019-04-14T19:25:08.460Z,17.07
2019-04-14T19:27:32.701Z,17.90
2019-04-14T19:30:01.437Z,18.00
2019-04-14T19:32:28.743Z,17.53
2019-04-14T19:34:55.676Z,19.33
2019-04-14T19:37:22.642Z,20.10
2019-04-14T19:39:49.655Z,17.40
2019-04-14T19:42:16.596Z,16.73
2019-04-14T19:44:43.548Z,15.90
2019-04-14T19:47:10.485Z,18.20
2019-04-14T19:49:37.424Z,15.60
2019-04-14T19:52:04.452Z,16.40
2019-04-14T19:54:31.736Z,17.90
2019-04-14T19:56:58.686Z,16.10
2019-04-14T19:59:25.619Z,17.20
2019-04-14T20:01:52.843Z,17.40
2019-04-14T20:04:19.775Z,18.53
2019-04-14T20:06:46.744Z,15.73
2019-04-14T20:09:13.651Z,18.77
2019-04-14T20:11:40.695Z,16.70
2019-04-14T20:14:07.728Z,16.07
2019-04-14T20:16:42.103Z,18.17
2019-04-14T20:19:27.168Z,17.23
2019-04-14T20:22:09.863Z,15.83
2019-04-14T20:24:41.987Z,15.67
2019-04-14T20:27:20.693Z,16.67
2019-04-14T20:29:50.628Z,16.53
2019-04-14T20:32:26.659Z,16.30
2019-04-14T20:34:53.591Z,18.00
2019-04-14T20:37:20.633Z,16.03
2019-04-14T20:39:47.664Z,17.33
2019-04-14T20:42:14.920Z,16.50
2019-04-14T20:44:41.856Z,17.73
2019-04-14T20:47:09.458Z,18.57
2019-04-14T20:49:37.369Z,16.80
2019-04-14T20:52:04.535Z,18.07
2019-04-14T20:54:31.475Z,17.03
2019-04-14T20:56:58.517Z,18.53
2019-04-14T20:59:25.832Z,17.13
2019-04-14T21:02:03.472Z,16.90
2019-04-14T21:04:42.707Z,16.87
2019-04-14T21:07:20.760Z,18.03
2019-04-14T21:09:53.824Z,18.57
2019-04-14T21:12:33.592Z,19.10
2019-04-14T21:15:26.955Z,17.47
2019-04-14T21:18:19.280Z,18.50
2019-04-14T21:20:56.175Z,19.83
2019-04-14T21:23:57.734Z,17.80
2019-04-14T21:26:46.911Z,19.90
2019-04-14T21:29:39.211Z,18.57
2019-04-14T21:32:26.250Z,17.20
2019-04-14T21:35:05.376Z,18.10
2019-04-14T21:37:50.642Z,18.13
2019-04-14T21:40:24.261Z,18.73
2019-04-14T21:42:51.191Z,17.57
2019-04-14T21:45:18.119Z,17.97
2019-04-14T21:47:45.048Z,15.83
2019-04-14T21:50:12.483Z,17.30
2019-04-14T21:52:44.087Z,17.33
2019-04-14T21:55:11.235Z,19.37
2019-04-14T21:57:46.923Z,21.20
2019-04-14T22:00:33.446Z,21.47
2019-04-14T22:03:19.157Z,16.40
2019-04-14T22:06:05.755Z,19.97
2019-04-14T22:08:36.837Z,16.70
2019-04-14T22:11:09.630Z,19.50
2019-04-14T22:13:36.568Z,18.60
2019-04-14T22:16:03.799Z,17.47
2019-04-14T22:18:30.827Z,17.83
2019-04-14T22:20:57.763Z,17.83
2019-04-14T22:23:24.692Z,18.17
2019-04-14T22:25:51.627Z,16.60
2019-04-14T22:28:18.659Z,18.20
2019-04-14T22:30:45.691Z,18.83
2019-04-14T22:33:13.319Z,18.40
2019-04-14T22:35:40.245Z,17.90
2019-04-14T22:38:07.171Z,21.00
2019-04-14T22:40:34.127Z,19.17
2019-04-14T22:43:01.123Z,16.77
2019-04-14T22:45:28.707Z,19.80
2019-04-14T22:47:56.044Z,20.33
2019-04-14T22:50:22.989Z,19.17
2019-04-14T22:52:49.920Z,18.70
2019-04-14T22:55:16.959Z,18.23
2019-04-14T22:57:43.891Z,17.43
2019-04-14T23:00:17.367Z,18.10
2019-04-14T23:03:06.758Z,18.80
2019-04-14T23:05:49.291Z,18.10
2019-04-14T23:08:44.952Z,17.40
2019-04-14T23:11:30.951Z,19.00
2019-04-14T23:14:11.867Z,19.83
2019-04-14T23:16:57.364Z,19.80
2019-04-14T23:19:30.553Z,18.80
2019-04-14T23:22:03.621Z,19.07
2019-04-14T23:24:34.387Z,20.63
2019-04-14T23:27:01.572Z,19.63
2019-04-14T23:29:28.507Z,18.00
2019-04-14T23:31:55.431Z,19.63
2019-04-14T23:34:22.351Z,19.87
2019-04-14T23:36:49.284Z,16.30
2019-04-14T23:39:16.467Z,16.43
2019-04-14T23:41:43.400Z,16.83
2019-04-14T23:44:10.447Z,15.40
2019-04-14T23:46:37.495Z,15.23
2019-04-14T23:49:04.671Z,15.93
2019-04-14T23:51:31.708Z,14.43
2019-04-14T23:53:58.632Z,16.17
2019-04-14T23:56:25.581Z,15.00
2019-04-14T23:58:52.616Z,15.07
